createdAt,value
2023-05-22T00:01:55.998Z,82.3917
2023-05-22T00:02:57.481Z,82.8987
2023-05-22T00:03:57.591Z,82.9724
2023-05-22T00:04:58.426Z,82.9264
2023-05-22T00:05:59.139Z,83.1947
2023-05-22T00:06:59.744Z,82.6723
2023-05-22T00:09:01.032Z,82.2608
2023-05-22T00:10:01.202Z,82.8787
2023-05-22T00:11:02.335Z,83.0289
2023-05-22T00:13:03.199Z,83.2585
2023-05-22T00:15:03.874Z,83.9757
2023-05-22T00:17:04.631Z,84.3414
2023-05-22T00:18:05.499Z,83.8651
2023-05-22T00:19:05.928Z,84.8548
2023-05-22T00:20:07.485Z,85.7064
2023-05-22T00:26:11.501Z,88.4870
2023-05-22T00:27:12.615Z,88.9322
2023-05-22T00:30:43.823Z,90.2072
2023-05-22T00:36:29.868Z,91.0876
2023-05-22T00:37:31.692Z,91.3675
2023-05-22T00:38:32.560Z,91.6838
2023-05-22T00:44:23.796Z,92.6071
2023-05-22T00:45:25.051Z,92.7968
2023-05-22T00:46:26.864Z,92.9867
2023-05-22T00:47:27.277Z,92.8390
2023-05-22T00:48:28.060Z,92.3539
2023-05-22T00:49:29.856Z,92.0877
2023-05-22T00:50:31.249Z,91.9644
2023-05-22T00:59:44.012Z,88.4836
2023-05-22T01:05:16.850Z,87.5301
2023-05-22T01:18:02.572Z,86.5901
2023-05-22T01:20:03.673Z,86.9967
2023-05-22T01:21:10.562Z,87.0043
2023-05-22T01:22:10.691Z,88.0836
2023-05-22T01:23:11.657Z,88.7108
2023-05-22T01:24:12.474Z,88.2198
2023-05-22T01:25:14.168Z,88.2477
2023-05-22T01:26:13.237Z,88.5462
2023-05-22T01:27:14.217Z,89.5978
2023-05-22T01:28:14.532Z,88.3110
2023-05-22T01:29:15.467Z,86.8473
2023-05-22T01:30:17.257Z,88.9604
2023-05-22T01:31:18.084Z,89.1260
2023-05-22T01:33:23.504Z,88.9589
2023-05-22T01:34:24.404Z,89.6848
2023-05-22T01:36:29.514Z,87.8627
2023-05-22T01:39:29.769Z,88.9942
2023-05-22T01:42:31.953Z,90.1704
2023-05-22T01:43:32.921Z,90.4010
2023-05-22T01:45:33.736Z,90.9956
2023-05-22T01:50:36.204Z,90.7997
2023-05-22T01:51:36.752Z,90.0116
2023-05-22T01:52:37.585Z,89.8431
2023-05-22T01:53:39.098Z,90.2101
2023-05-22T02:00:44.173Z,93.0732
2023-05-22T02:01:44.651Z,92.9817
2023-05-22T02:02:45.340Z,92.9045
2023-05-22T02:03:45.987Z,92.8754
2023-05-22T02:04:45.969Z,92.3394
2023-05-22T02:05:46.890Z,92.0859
2023-05-22T02:06:47.118Z,92.0645
2023-05-22T02:07:48.043Z,92.8946
2023-05-22T02:08:48.584Z,93.2339
2023-05-22T02:09:48.775Z,93.7200
2023-05-22T02:10:50.535Z,94.2754
2023-05-22T02:11:50.802Z,94.4771
2023-05-22T02:13:53.992Z,92.2610
2023-05-22T02:15:54.796Z,93.7601
2023-05-22T02:16:55.685Z,93.1685
2023-05-22T02:17:56.295Z,93.2520
2023-05-22T02:19:59.977Z,92.1634
2023-05-22T02:21:00.453Z,90.8896
2023-05-22T02:22:00.640Z,90.8588
2023-05-22T02:23:02.741Z,90.5123
2023-05-22T02:24:03.117Z,91.7678
2023-05-22T02:25:03.391Z,91.4405
2023-05-22T02:26:04.993Z,90.9190
2023-05-22T02:27:05.111Z,91.3755
2023-05-22T02:32:09.543Z,92.8240
2023-05-22T02:33:10.687Z,91.7741
2023-05-22T02:34:10.625Z,90.9324
2023-05-22T02:35:12.637Z,92.1055
2023-05-22T02:40:15.557Z,92.6707
2023-05-22T02:41:15.939Z,92.8822
2023-05-22T02:42:16.636Z,93.3257
2023-05-22T02:43:17.279Z,94.0340
2023-05-22T02:44:17.638Z,94.2095
2023-05-22T02:45:19.288Z,92.1242
2023-05-22T02:46:20.767Z,92.9946
2023-05-22T02:56:24.758Z,90.8471
2023-05-22T02:57:25.728Z,90.3502
2023-05-22T02:58:27.070Z,91.3763
2023-05-22T02:59:28.259Z,92.4835
2023-05-22T03:00:28.712Z,92.9959
2023-05-22T03:01:30.365Z,93.5061
2023-05-22T03:02:31.563Z,94.0695
2023-05-22T03:03:32.581Z,91.9271
2023-05-22T03:04:32.915Z,93.4607
2023-05-22T03:05:34.001Z,92.5920
2023-05-22T03:14:40.779Z,94.8052
2023-05-22T03:15:40.933Z,94.5708
2023-05-22T03:16:41.221Z,95.1296
2023-05-22T03:17:41.902Z,95.2968
2023-05-22T03:18:40.930Z,95.7076
2023-05-22T03:19:42.251Z,95.8558
2023-05-22T03:20:42.953Z,95.8010
2023-05-22T03:21:43.876Z,95.7441
2023-05-22T03:22:44.749Z,95.5643
2023-05-22T03:23:46.681Z,95.4660
2023-05-22T03:24:46.913Z,93.9865
2023-05-22T03:25:47.541Z,94.0747
2023-05-22T03:26:49.402Z,92.7971
2023-05-22T03:27:50.392Z,92.9701
2023-05-22T03:30:52.832Z,95.2017
2023-05-22T03:32:53.492Z,95.2724
2023-05-22T03:33:53.733Z,95.6074
2023-05-22T03:34:54.259Z,95.8806
2023-05-22T03:35:54.389Z,95.9171
2023-05-22T03:37:57.882Z,96.3745
2023-05-22T03:41:00.417Z,94.9245
2023-05-22T03:42:02.006Z,94.8783
2023-05-22T03:46:48.017Z,95.8822
2023-05-22T03:47:48.982Z,95.8134
2023-05-22T03:49:49.974Z,96.2347
2023-05-22T03:54:54.094Z,95.3898
2023-05-22T03:55:54.210Z,95.1247
2023-05-22T03:57:55.942Z,94.3440
2023-05-22T03:58:56.615Z,93.2502
2023-05-22T04:06:59.042Z,92.5430
2023-05-22T04:07:59.445Z,93.3230
2023-05-22T04:09:00.356Z,93.7697
2023-05-22T04:10:00.467Z,94.1439
2023-05-22T04:11:01.368Z,94.8113
2023-05-22T04:12:02.066Z,95.1377
2023-05-22T04:13:02.256Z,95.2976
2023-05-22T04:14:03.284Z,95.4514
2023-05-22T04:15:03.220Z,95.4270
2023-05-22T04:16:03.508Z,94.9585
2023-05-22T04:17:03.620Z,94.7068
2023-05-22T04:18:04.359Z,94.4025
2023-05-22T04:26:14.381Z,91.8773
2023-05-22T04:27:14.447Z,91.7165
2023-05-22T04:28:17.110Z,91.5009
2023-05-22T04:34:22.129Z,90.5845
2023-05-22T04:35:22.205Z,90.6448
2023-05-22T04:36:23.290Z,90.4817
2023-05-22T04:37:23.447Z,90.7286
2023-05-22T04:38:24.209Z,91.4480
2023-05-22T04:39:25.488Z,91.5029
2023-05-22T04:40:26.772Z,91.7631
2023-05-22T04:42:27.611Z,91.9855
2023-05-22T04:43:27.934Z,92.4896
2023-05-22T04:44:28.242Z,92.8929
2023-05-22T04:45:29.030Z,93.1186
2023-05-22T04:46:29.875Z,93.4184
2023-05-22T04:47:31.026Z,93.4781
2023-05-22T04:48:32.815Z,93.6979
2023-05-22T04:49:34.049Z,93.9725
2023-05-22T04:50:34.103Z,94.1685
2023-05-22T04:51:35.771Z,94.4666
2023-05-22T04:52:36.995Z,93.6823
2023-05-22T04:54:38.448Z,93.2002
2023-05-22T04:55:38.846Z,93.2775
2023-05-22T04:56:39.403Z,93.6456
2023-05-22T04:57:41.682Z,93.2902
2023-05-22T05:03:45.534Z,91.6481
2023-05-22T05:04:46.250Z,91.8860
2023-05-22T05:05:46.375Z,92.5031
2023-05-22T05:06:47.862Z,90.9470
2023-05-22T05:07:50.113Z,87.4179
2023-05-22T05:08:49.282Z,85.7330
2023-05-22T05:09:49.923Z,84.0704
2023-05-22T05:11:50.030Z,83.2787
2023-05-22T05:12:50.279Z,80.7635
2023-05-22T05:13:51.002Z,79.6457
2023-05-22T05:14:51.686Z,80.0341
2023-05-22T05:15:52.100Z,78.0755
2023-05-22T05:17:54.509Z,75.9676
2023-05-22T05:18:55.502Z,76.1099
2023-05-22T05:23:57.503Z,76.2449
2023-05-22T05:24:57.640Z,74.4046
2023-05-22T05:25:58.658Z,73.8328
2023-05-22T05:27:00.283Z,72.8940
2023-05-22T05:28:00.869Z,75.6211
2023-05-22T05:29:02.559Z,74.5430
2023-05-22T05:30:03.293Z,75.0448
2023-05-22T05:32:03.956Z,75.8954
2023-05-22T05:33:04.281Z,74.7565
2023-05-22T05:34:05.207Z,73.6876
2023-05-22T05:35:05.232Z,72.5113
2023-05-22T05:36:06.542Z,72.5530
2023-05-22T05:37:07.407Z,71.3662
2023-05-22T05:38:07.796Z,70.1118
2023-05-22T05:39:08.052Z,69.7399
2023-05-22T05:40:08.356Z,67.1259
2023-05-22T05:41:09.063Z,68.7923
2023-05-22T05:42:09.126Z,69.5034
2023-05-22T05:43:10.071Z,68.5146
2023-05-22T05:44:11.605Z,67.9979
2023-05-22T05:45:11.810Z,67.3777
2023-05-22T05:46:12.156Z,69.7081
2023-05-22T05:47:12.890Z,68.3856
2023-05-22T05:48:13.445Z,65.2414
2023-05-22T05:49:14.738Z,62.2779
2023-05-22T05:50:15.655Z,59.9276
2023-05-22T05:51:16.013Z,62.2844
2023-05-22T05:52:16.165Z,62.1030
2023-05-22T05:53:17.278Z,61.5591
2023-05-22T05:54:17.945Z,63.6603
2023-05-22T05:55:17.997Z,61.8436
2023-05-22T05:56:19.433Z,59.6206
2023-05-22T05:57:19.524Z,59.1539
2023-05-22T05:58:20.513Z,61.7443
2023-05-22T05:59:21.351Z,63.7991
2023-05-22T06:00:21.450Z,61.9786
2023-05-22T06:02:24.002Z,63.2761
2023-05-22T06:03:24.533Z,65.4963
2023-05-22T06:05:26.935Z,62.9453
2023-05-22T06:09:27.232Z,63.5519
2023-05-22T06:10:28.406Z,62.9974
2023-05-22T06:11:28.469Z,62.0743
2023-05-22T06:12:29.257Z,63.6690
2023-05-22T06:17:31.102Z,59.7015
2023-05-22T06:18:32.134Z,60.0956
2023-05-22T06:19:33.057Z,61.3306
2023-05-22T06:21:33.622Z,62.3247
2023-05-22T06:29:38.647Z,58.3724
2023-05-22T06:30:40.894Z,60.1268
2023-05-22T06:31:43.760Z,61.7039
2023-05-22T06:33:42.633Z,58.1548
2023-05-22T06:34:43.193Z,60.3452
2023-05-22T06:35:44.306Z,59.3326
2023-05-22T06:36:45.388Z,61.4629
2023-05-22T06:37:46.336Z,62.1643
2023-05-22T06:38:47.348Z,62.1370
2023-05-22T06:39:48.701Z,61.2977
2023-05-22T06:46:52.122Z,62.4634
2023-05-22T06:47:53.593Z,62.6844
2023-05-22T06:48:54.311Z,64.1230
2023-05-22T06:51:54.477Z,58.1274
2023-05-22T06:53:56.026Z,61.8547
2023-05-22T06:56:58.071Z,59.9509
2023-05-22T06:57:59.475Z,59.7984
2023-05-22T06:59:00.049Z,62.1827
2023-05-22T07:00:00.639Z,60.7673
2023-05-22T07:01:02.386Z,59.1605
2023-05-22T07:02:03.428Z,57.6306
2023-05-22T07:03:04.577Z,58.9630
2023-05-22T07:04:06.188Z,61.1747
2023-05-22T07:05:07.493Z,60.4793
2023-05-22T07:07:06.880Z,61.1598
2023-05-22T07:10:07.384Z,62.0817
2023-05-22T07:11:07.781Z,61.8030
2023-05-22T07:12:08.854Z,62.1205
2023-05-22T07:13:10.049Z,63.1128
2023-05-22T07:14:10.868Z,62.4580
2023-05-22T07:15:11.915Z,62.2670
2023-05-22T07:16:13.005Z,63.3006
2023-05-22T07:17:14.044Z,64.3499
2023-05-22T07:24:19.412Z,61.1457
2023-05-22T07:25:20.446Z,62.2827
2023-05-22T07:26:21.425Z,64.1930
2023-05-22T07:27:22.357Z,60.6077
2023-05-22T07:28:23.352Z,61.2792
2023-05-22T07:29:25.026Z,62.6426
2023-05-22T07:30:26.285Z,61.3045
2023-05-22T07:31:27.341Z,59.4834
2023-05-22T07:32:28.387Z,57.4871
2023-05-22T07:33:29.502Z,60.1865
2023-05-22T07:34:30.608Z,58.7019
2023-05-22T07:35:31.817Z,56.6709
2023-05-22T07:36:32.619Z,58.3942
2023-05-22T07:37:33.620Z,59.7653
2023-05-22T07:38:34.545Z,63.2598
2023-05-22T07:39:35.549Z,63.6436
2023-05-22T07:40:36.463Z,60.7149
2023-05-22T07:41:37.650Z,61.8249
2023-05-22T07:42:38.682Z,63.1384
2023-05-22T07:43:39.689Z,61.6324
2023-05-22T07:44:40.851Z,59.7844
2023-05-22T07:45:41.906Z,59.3032
2023-05-22T07:46:41.938Z,58.0252
2023-05-22T07:47:42.216Z,60.1696
2023-05-22T07:48:43.020Z,61.3382
2023-05-22T07:49:43.039Z,61.2978
2023-05-22T07:50:44.243Z,61.8773
2023-05-22T07:51:45.293Z,61.3439
2023-05-22T07:52:46.065Z,59.9644
2023-05-22T07:54:48.123Z,60.6807
2023-05-22T07:55:49.192Z,60.6851
2023-05-22T07:56:50.288Z,62.0771
2023-05-22T07:57:50.743Z,61.1861
2023-05-22T07:58:52.014Z,61.2566
2023-05-22T07:59:53.030Z,61.0764
2023-05-22T08:00:53.923Z,61.9710
2023-05-22T08:01:57.416Z,59.6286
2023-05-22T08:02:55.060Z,55.5910
2023-05-22T08:03:57.065Z,59.0852
2023-05-22T08:04:57.018Z,60.0805
2023-05-22T08:05:57.013Z,59.1701
2023-05-22T08:06:58.064Z,58.8685
2023-05-22T08:07:59.085Z,58.0334
2023-05-22T08:09:00.035Z,56.2120
2023-05-22T08:10:00.633Z,57.2353
2023-05-22T08:11:03.800Z,58.7003
2023-05-22T08:14:02.658Z,60.7787
2023-05-22T08:15:03.964Z,59.8456
2023-05-22T08:16:04.825Z,60.0373
2023-05-22T08:17:05.083Z,59.1105
2023-05-22T08:18:06.237Z,57.0503
2023-05-22T08:19:07.755Z,56.7324
2023-05-22T08:20:08.070Z,56.5717
2023-05-22T08:21:08.399Z,57.3886
2023-05-22T08:22:08.296Z,55.7068
2023-05-22T08:23:09.530Z,57.6598
2023-05-22T08:24:10.625Z,55.7862
2023-05-22T08:25:11.657Z,56.6229
2023-05-22T08:26:12.639Z,56.8404
2023-05-22T08:27:13.578Z,58.2763
2023-05-22T08:29:15.310Z,56.8868
2023-05-22T08:30:16.323Z,55.3721
2023-05-22T08:31:17.727Z,57.0139
2023-05-22T08:32:18.933Z,57.7520
2023-05-22T08:33:19.363Z,57.4198
2023-05-22T08:34:19.578Z,56.6550
2023-05-22T08:35:20.523Z,55.5363
2023-05-22T08:36:21.450Z,54.6327
2023-05-22T08:37:22.408Z,55.2214
2023-05-22T08:38:23.455Z,55.2355
2023-05-22T09:08:50.087Z,50.8055
2023-05-22T09:09:48.506Z,52.8904
2023-05-22T09:10:48.987Z,52.7369
2023-05-22T09:11:49.885Z,54.3685
2023-05-22T09:12:51.060Z,52.8960
2023-05-22T09:15:52.532Z,51.6655
2023-05-22T09:16:53.018Z,53.5457
2023-05-22T09:17:54.208Z,54.4856
2023-05-22T09:18:55.575Z,53.2793
2023-05-22T09:21:57.465Z,51.1541
2023-05-22T09:22:58.419Z,50.8312
2023-05-22T09:23:59.423Z,51.5195
2023-05-22T09:25:00.541Z,51.6458
2023-05-22T09:26:01.514Z,50.5203
2023-05-22T09:27:02.523Z,50.7333
2023-05-22T09:28:03.434Z,51.4005
2023-05-22T09:29:04.359Z,49.9823
2023-05-22T09:30:05.236Z,49.9120
2023-05-22T09:31:06.448Z,49.6891
2023-05-22T09:32:06.358Z,49.8509
2023-05-22T09:33:07.562Z,50.4148
2023-05-22T09:34:07.604Z,46.5018
2023-05-22T09:35:08.846Z,46.5617
2023-05-22T09:36:09.688Z,50.4889
2023-05-22T09:37:10.548Z,49.0955
2023-05-22T09:38:12.207Z,51.0069
2023-05-22T09:39:12.126Z,52.7892
2023-05-22T09:40:13.112Z,49.1700
2023-05-22T09:41:13.960Z,49.4542
2023-05-22T09:42:14.887Z,48.4632
2023-05-22T09:43:15.882Z,48.1743
2023-05-22T09:44:17.842Z,45.3602
2023-05-22T09:45:17.711Z,47.6233
2023-05-22T09:46:18.844Z,50.2129
2023-05-22T09:47:19.174Z,49.7607
2023-05-22T09:50:20.637Z,47.0725
2023-05-22T09:51:21.542Z,48.6056
2023-05-22T09:52:22.491Z,47.4160
2023-05-22T09:53:23.431Z,47.7131
2023-05-22T09:54:24.543Z,47.1094
2023-05-22T09:55:25.514Z,48.8948
2023-05-22T09:56:38.502Z,48.3258
2023-05-22T09:57:31.552Z,49.1460
2023-05-22T09:58:32.323Z,48.4152
2023-05-22T09:59:33.214Z,46.5449
2023-05-22T10:00:34.133Z,47.7574
2023-05-22T10:01:35.078Z,44.9777
2023-05-22T10:02:36.198Z,44.2617
2023-05-22T10:03:37.266Z,42.0631
2023-05-22T10:04:38.474Z,46.8168
2023-05-22T10:05:39.502Z,49.1075
2023-05-22T10:06:40.572Z,48.1021
2023-05-22T10:07:41.524Z,46.0203
2023-05-22T10:08:42.430Z,46.3920
2023-05-22T10:09:42.775Z,45.1498
2023-05-22T10:10:43.956Z,45.5790
2023-05-22T10:11:45.015Z,47.8613
2023-05-22T10:12:45.974Z,48.7379
2023-05-22T10:13:46.757Z,49.3479
2023-05-22T10:14:46.815Z,49.8349
2023-05-22T10:15:47.905Z,48.8988
2023-05-22T10:16:48.265Z,48.2442
2023-05-22T10:17:48.448Z,48.0606
2023-05-22T10:18:49.259Z,47.3050
2023-05-22T10:19:50.087Z,47.4863
2023-05-22T10:20:50.905Z,44.5226
2023-05-22T10:21:52.099Z,44.3568
2023-05-22T10:22:52.966Z,43.1148
2023-05-22T10:23:54.060Z,42.0489
2023-05-22T10:24:55.105Z,42.0703
2023-05-22T10:25:56.146Z,44.8047
2023-05-22T10:26:57.007Z,46.1314
2023-05-22T10:27:58.004Z,45.4523
2023-05-22T10:28:59.068Z,47.9383
2023-05-22T10:30:00.127Z,48.2772
2023-05-22T10:31:01.256Z,47.4905
2023-05-22T10:32:02.264Z,47.9848
2023-05-22T10:33:03.589Z,44.0616
2023-05-22T10:34:03.470Z,46.0965
2023-05-22T10:35:03.510Z,45.9949
2023-05-22T10:37:16.608Z,46.4162
2023-05-22T10:38:05.922Z,44.0682
2023-05-22T10:39:06.823Z,45.1920
2023-05-22T10:40:07.734Z,41.3645
2023-05-22T10:41:08.600Z,43.6209
2023-05-22T10:42:09.721Z,43.3237
2023-05-22T10:43:10.572Z,45.5243
2023-05-22T10:44:11.394Z,42.3460
2023-05-22T10:45:12.533Z,42.7513
2023-05-22T10:46:13.631Z,45.0211
2023-05-22T10:47:14.413Z,47.0441
2023-05-22T10:48:15.379Z,42.5601
2023-05-22T10:49:16.339Z,45.8863
2023-05-22T10:50:17.301Z,45.7454
2023-05-22T10:51:18.194Z,46.8360
2023-05-22T10:52:19.203Z,45.0262
2023-05-22T10:53:20.120Z,46.1886
2023-05-22T10:54:20.831Z,45.7072
2023-05-22T10:55:21.736Z,45.4779
2023-05-22T10:56:25.094Z,44.8491
2023-05-22T10:57:24.020Z,45.8250
2023-05-22T10:58:25.025Z,46.1493
2023-05-22T10:59:25.933Z,45.1156
2023-05-22T11:00:27.001Z,44.0062
2023-05-22T11:01:27.826Z,44.3546
2023-05-22T11:02:29.122Z,42.7544
2023-05-22T11:03:29.590Z,45.0222
2023-05-22T11:04:30.545Z,44.8263
2023-05-22T11:06:31.356Z,42.4979
2023-05-22T11:07:32.583Z,44.4702
2023-05-22T11:08:32.582Z,43.8555
2023-05-22T11:09:33.926Z,44.7806
2023-05-22T11:10:34.836Z,45.2289
2023-05-22T11:11:35.966Z,45.4053
2023-05-22T11:12:36.941Z,44.6691
2023-05-22T11:13:37.762Z,46.8794
2023-05-22T11:14:38.671Z,43.7713
2023-05-22T11:15:39.583Z,43.0463
2023-05-22T11:16:40.609Z,41.8065
2023-05-22T11:17:41.703Z,46.8776
2023-05-22T11:18:41.661Z,47.7606
2023-05-22T11:19:42.673Z,48.0649
2023-05-22T11:20:43.774Z,46.1111
2023-05-22T11:21:44.723Z,46.5019
2023-05-22T11:22:45.891Z,48.4256
2023-05-22T11:23:47.017Z,47.7176
2023-05-22T11:24:47.930Z,47.2277
2023-05-22T11:25:48.878Z,46.4126
2023-05-22T11:26:49.928Z,45.8645
2023-05-22T11:27:50.749Z,44.2318
2023-05-22T11:28:51.798Z,46.0404
2023-05-22T11:29:52.796Z,46.2845
2023-05-22T11:30:54.040Z,45.5615
2023-05-22T11:31:54.098Z,45.2197
2023-05-22T11:32:55.053Z,47.5267
2023-05-22T11:33:56.234Z,47.5561
2023-05-22T11:34:57.016Z,47.8348
2023-05-22T11:35:57.989Z,48.1314
2023-05-22T11:36:59.179Z,46.2240
2023-05-22T11:38:00.283Z,46.8228
2023-05-22T11:39:01.163Z,46.5733
2023-05-22T11:40:02.081Z,45.9708
2023-05-22T11:41:03.029Z,45.6045
2023-05-22T11:42:04.162Z,46.9342
2023-05-22T11:43:05.024Z,45.4885
2023-05-22T11:44:05.717Z,43.9437
2023-05-22T11:45:06.636Z,45.2156
2023-05-22T11:46:07.800Z,43.2318
2023-05-22T11:47:07.738Z,43.0106
2023-05-22T11:48:08.912Z,42.6516
2023-05-22T11:49:09.863Z,45.4218
2023-05-22T11:50:10.967Z,40.5309
2023-05-22T11:51:11.499Z,42.0853
2023-05-22T11:52:12.444Z,42.8406
2023-05-22T11:53:13.445Z,42.0161
2023-05-22T11:54:14.390Z,42.5879
2023-05-22T11:55:15.380Z,44.7485
2023-05-22T11:56:16.331Z,46.3061
2023-05-22T11:57:17.205Z,45.9696
2023-05-22T11:58:18.334Z,45.4533
2023-05-22T11:59:19.365Z,44.0463
2023-05-22T12:00:19.582Z,43.5607
2023-05-22T12:01:20.777Z,45.7220
2023-05-22T12:02:21.779Z,44.5241
2023-05-22T12:03:25.162Z,46.8834
2023-05-22T12:04:24.533Z,45.7867
2023-05-22T12:05:25.556Z,45.6463
2023-05-22T12:06:25.476Z,45.8914
2023-05-22T12:07:26.672Z,46.0734
2023-05-22T12:08:27.598Z,44.9735
2023-05-22T12:09:27.993Z,45.5600
2023-05-22T12:10:28.771Z,45.5170
2023-05-22T12:11:29.130Z,44.5658
2023-05-22T12:12:30.112Z,43.0218
2023-05-22T12:13:31.002Z,44.7712
2023-05-22T12:14:31.974Z,44.9763
2023-05-22T12:15:32.415Z,45.4022
2023-05-22T12:16:33.243Z,46.1948
2023-05-22T12:17:34.312Z,43.1967
2023-05-22T12:18:34.709Z,43.4091
2023-05-22T12:19:35.916Z,45.3164
2023-05-22T12:20:35.936Z,40.3298
2023-05-22T12:21:36.733Z,42.9270
2023-05-22T12:22:37.909Z,42.2194
2023-05-22T12:23:38.811Z,42.2049
2023-05-22T12:24:39.804Z,44.6929
2023-05-22T12:25:40.881Z,44.9222
2023-05-22T12:26:42.044Z,43.2800
2023-05-22T12:27:43.050Z,42.2287
2023-05-22T12:28:43.990Z,43.4107
2023-05-22T12:29:44.923Z,41.0871
2023-05-22T12:30:45.906Z,40.7882
2023-05-22T12:31:46.922Z,41.0806
2023-05-22T12:32:47.082Z,40.2792
2023-05-22T12:33:48.107Z,41.3912
2023-05-22T12:34:49.066Z,42.4625
2023-05-22T12:35:50.145Z,42.1195
2023-05-22T12:36:50.967Z,42.0130
2023-05-22T12:37:52.052Z,42.5412
2023-05-22T12:38:53.053Z,44.7791
2023-05-22T12:39:53.992Z,44.6663
2023-05-22T12:40:54.982Z,41.8422
2023-05-22T12:41:55.919Z,39.5668
2023-05-22T12:42:56.955Z,39.8608
2023-05-22T12:43:57.994Z,41.1059
2023-05-22T12:44:58.770Z,42.9296
2023-05-22T12:46:01.741Z,43.2235
2023-05-22T12:47:00.223Z,42.0375
2023-05-22T12:48:01.336Z,45.8259
2023-05-22T12:49:02.446Z,44.7014
2023-05-22T12:50:03.389Z,44.1909
2023-05-22T12:51:04.308Z,46.1033
2023-05-22T12:52:05.452Z,44.4923
2023-05-22T12:53:06.619Z,45.8760
2023-05-22T12:54:07.616Z,45.9354
2023-05-22T12:55:08.575Z,43.0737
2023-05-22T12:56:09.781Z,42.6761
2023-05-22T12:57:10.521Z,40.1243
2023-05-22T12:58:11.269Z,40.4432
2023-05-22T12:59:12.380Z,42.4137
2023-05-22T13:00:13.299Z,40.6518
2023-05-22T13:01:14.492Z,41.7871
2023-05-22T13:02:15.607Z,41.0916
2023-05-22T13:03:16.648Z,39.5329
2023-05-22T13:04:17.636Z,38.2618
2023-05-22T13:05:18.771Z,40.0269
2023-05-22T13:06:19.856Z,40.7654
2023-05-22T13:07:20.799Z,41.4174
2023-05-22T13:08:21.942Z,39.2837
2023-05-22T13:09:22.952Z,40.5588
2023-05-22T13:10:23.911Z,39.6187
2023-05-22T13:11:24.932Z,37.0097
2023-05-22T13:12:25.606Z,40.7370
2023-05-22T13:13:26.775Z,40.6699
2023-05-22T13:14:27.517Z,40.5034
2023-05-22T13:15:28.553Z,38.6536
2023-05-22T13:16:28.615Z,40.2909
2023-05-22T13:17:29.702Z,39.4244
2023-05-22T13:18:30.766Z,39.8422
2023-05-22T13:19:30.945Z,37.0066
2023-05-22T13:20:31.753Z,40.0676
2023-05-22T13:21:31.912Z,40.7128
2023-05-22T13:22:32.893Z,40.2944
2023-05-22T13:23:34.131Z,40.8393
2023-05-22T13:24:35.071Z,41.5858
2023-05-22T13:25:36.059Z,41.9382
2023-05-22T13:26:37.119Z,41.3826
2023-05-22T13:27:37.849Z,39.3708
2023-05-22T13:28:38.830Z,38.9084
2023-05-22T13:29:39.828Z,38.3563
2023-05-22T13:30:41.053Z,33.7931
2023-05-22T13:31:40.949Z,35.3375
2023-05-22T13:32:42.064Z,36.8643
2023-05-22T13:33:43.293Z,38.8294
2023-05-22T13:34:43.814Z,40.7600
2023-05-22T13:35:44.515Z,41.1733
2023-05-22T13:36:45.279Z,41.2849
2023-05-22T13:38:47.202Z,41.1324
2023-05-22T13:39:48.209Z,40.6148
2023-05-22T13:41:49.679Z,38.8143
2023-05-22T13:42:51.087Z,40.2469
2023-05-22T13:43:52.240Z,44.6323
2023-05-22T13:44:53.161Z,41.9166
2023-05-22T13:46:55.329Z,42.3665
2023-05-22T13:47:55.587Z,42.6448
2023-05-22T13:48:56.632Z,44.8091
2023-05-22T13:49:56.724Z,44.4016
2023-05-22T13:50:57.718Z,46.5676
2023-05-22T13:57:02.943Z,41.0403
2023-05-22T13:58:04.102Z,39.4402
2023-05-22T13:59:06.030Z,39.8421
2023-05-22T14:00:05.450Z,38.3244
2023-05-22T14:01:06.754Z,39.5017
2023-05-22T14:02:07.617Z,38.2401
2023-05-22T14:03:07.838Z,36.4956
2023-05-22T14:04:08.972Z,40.6672
2023-05-22T14:07:14.155Z,39.8659
2023-05-22T14:08:14.930Z,37.3800
2023-05-22T14:09:15.597Z,37.6334
2023-05-22T14:10:16.665Z,39.3507
2023-05-22T14:11:16.880Z,43.4379
2023-05-22T14:12:17.249Z,42.7130
2023-05-22T14:13:17.733Z,43.4697
2023-05-22T14:14:19.181Z,43.9578
2023-05-22T14:15:20.551Z,45.4611
2023-05-22T14:16:21.878Z,46.1732
2023-05-22T14:17:22.580Z,42.0669
2023-05-22T14:18:23.864Z,43.1195
2023-05-22T14:19:24.163Z,42.0359
2023-05-22T14:20:24.328Z,40.2173
2023-05-22T14:21:25.404Z,39.8430
2023-05-22T14:22:25.876Z,39.3801
2023-05-22T14:23:26.908Z,39.6912
2023-05-22T14:24:27.602Z,40.9342
2023-05-22T14:25:28.329Z,39.1692
2023-05-22T14:26:29.385Z,39.8853
2023-05-22T14:27:30.018Z,42.0739
2023-05-22T14:33:33.751Z,43.0886
2023-05-22T14:34:34.744Z,43.0340
2023-05-22T14:35:35.707Z,42.1401
2023-05-22T14:36:36.580Z,40.9045
2023-05-22T14:37:37.746Z,39.3459
2023-05-22T14:38:38.887Z,39.4201
2023-05-22T14:39:39.766Z,39.1384
2023-05-22T14:40:40.936Z,38.4291
2023-05-22T14:41:41.717Z,38.4644
2023-05-22T14:42:42.672Z,37.6240
2023-05-22T14:43:43.621Z,39.1928
2023-05-22T14:44:44.504Z,39.0133
2023-05-22T14:45:44.589Z,37.5857
2023-05-22T14:46:45.848Z,39.2941
2023-05-22T14:47:46.976Z,38.7419
2023-05-22T14:48:47.933Z,37.8134
2023-05-22T14:49:48.904Z,36.5750
2023-05-22T14:50:49.860Z,35.0990
2023-05-22T14:51:50.932Z,35.4528
2023-05-22T14:52:51.865Z,36.5419
2023-05-22T14:53:52.876Z,35.8468
2023-05-22T14:54:53.830Z,35.3671
2023-05-22T14:55:54.865Z,36.4216
2023-05-22T14:56:55.683Z,33.1835
2023-05-22T14:57:56.651Z,36.9863
2023-05-22T14:59:58.394Z,36.9422
2023-05-22T15:02:00.576Z,38.0626
2023-05-22T15:03:00.838Z,40.0872
2023-05-22T15:04:01.811Z,40.3805
2023-05-22T15:05:02.971Z,38.5040
2023-05-22T15:06:03.377Z,37.0854
2023-05-22T15:07:04.336Z,37.6464
2023-05-22T15:08:04.383Z,36.7012
2023-05-22T15:09:05.242Z,36.5556
2023-05-22T15:10:06.243Z,35.2705
2023-05-22T15:11:07.494Z,36.1506
2023-05-22T15:12:08.603Z,36.4678
2023-05-22T15:13:09.209Z,38.6346
2023-05-22T15:16:12.374Z,39.3188
2023-05-22T15:18:14.825Z,40.8191
2023-05-22T15:19:15.721Z,40.7758
2023-05-22T15:20:15.616Z,38.8432
2023-05-22T15:21:16.783Z,40.9580
2023-05-22T15:22:19.741Z,42.2654
2023-05-22T15:23:18.820Z,40.0385
2023-05-22T15:27:21.258Z,43.7186
2023-05-22T15:28:22.379Z,43.6984
2023-05-22T15:29:23.280Z,43.3057
2023-05-22T15:30:24.037Z,43.2735
2023-05-22T15:31:25.117Z,43.2848
2023-05-22T15:32:25.146Z,43.6923
2023-05-22T15:33:26.017Z,45.1749
2023-05-22T15:34:26.889Z,44.7147
2023-05-22T15:35:27.846Z,43.4771
2023-05-22T15:36:28.850Z,44.2076
2023-05-22T15:37:32.162Z,43.8432
2023-05-22T15:38:30.003Z,43.4635
2023-05-22T15:39:30.988Z,44.4494
2023-05-22T15:40:31.750Z,44.4433
2023-05-22T15:41:32.910Z,45.9429
2023-05-22T15:42:33.513Z,45.3950
2023-05-22T15:43:34.460Z,45.0463
2023-05-22T15:44:35.397Z,43.9047
2023-05-22T15:45:36.500Z,44.2330
2023-05-22T15:46:37.043Z,44.7820
2023-05-22T15:47:38.228Z,44.8996
2023-05-22T15:48:38.168Z,44.7754
2023-05-22T15:50:40.087Z,45.2366
2023-05-22T15:51:41.094Z,44.0379
2023-05-22T15:52:42.012Z,45.7338
2023-05-22T15:53:43.099Z,49.3207
2023-05-22T15:54:44.067Z,48.3081
2023-05-22T15:55:44.214Z,51.2131
2023-05-22T15:56:45.210Z,51.5362
2023-05-22T15:57:46.209Z,47.9540
2023-05-22T15:58:47.227Z,47.2519
2023-05-22T15:59:48.308Z,50.2580
2023-05-22T16:00:48.817Z,50.2580
2023-05-22T16:01:48.910Z,55.4754
2023-05-22T16:02:49.394Z,56.7274
2023-05-22T16:03:50.425Z,56.2645
2023-05-22T16:04:51.426Z,60.7679
2023-05-22T16:05:52.384Z,56.2043
2023-05-22T16:06:53.458Z,54.7451
2023-05-22T16:07:54.503Z,51.9009
2023-05-22T16:08:55.599Z,54.2930
2023-05-22T16:09:56.650Z,44.7826
2023-05-22T16:10:56.684Z,43.4969
2023-05-22T16:11:57.421Z,43.6040
2023-05-22T16:12:58.476Z,40.8924
2023-05-22T16:13:59.535Z,42.9675
2023-05-22T16:15:01.937Z,42.1954
2023-05-22T16:16:01.586Z,42.7441
2023-05-22T16:17:02.562Z,43.4632
2023-05-22T16:18:03.710Z,40.6296
2023-05-22T16:19:04.973Z,40.4208
2023-05-22T16:20:05.041Z,43.8026
2023-05-22T16:21:05.890Z,42.6514
2023-05-22T16:22:06.985Z,40.4481
2023-05-22T16:23:07.698Z,38.3282